A- A+ FrançaisEnglishEspañol中国

le plus proche LFTH Hyeres-Le-Palyvestre LFBT Tarbes-Lourdes-PyrénéesLFBZ Biarritz-Bayonne-Anglet LFBD Bordeaux-Merignac

manche à air

La météo aéronautique pour les pilotes, la préparation du vol avec les METAR (METeorological Aerodrome Report, message d'observation des conditions météorologiques pour l'aviation) et Les TAF (Terminal Aerodrome Forecast : message de prévision à court terme des conditions météorologiques pour l'aviation). Et les autres ressources comme les VAC (Visual Approch Chart) et les NOTAM (Notice To Airman) pour préprer les vols.

Aéroport Ljungbyhed (Suède) / OACI ESTL

L'altitude de l'aéroport Ljungbyhed est de 43 m=141 ft. Il est situé à proximité de Ljungbyhed (Suède). La météo générale à 5 jours est disponible pour Gålarp situé à 6.2 km.

METAR de l'aéroport Ljungbyhed - ESTL

ESTL 291150Z AUTO 23011KT 9999 FEW023/// SCT079/// 16/11 Q0997

Décodage du METAR de l'aéroport Ljungbyhed (SE)

METAR émis par ESTL le dimanche 29 septembre 2019 à 11:50 heure TU. C'est un METAR généré automatiquement. Attention ce METAR est obsolète car il a été émis il y a 12 heure et 20 minutes.

La visibilité est de supérieure à 10 km=supérieure à 6.2 sm.

La température est de 16°C=61 °F et le point rosée est de 11°C=52 °F . Ce qui correspond à 72% d'humidité relative.

Le QNH est de 997 hPa=29.44 inHg

Vent de 11 kt=20 km/h, orienté à 230°.

Nuages : Quelques nuages à 2300 ft=700 mètres. Nuages épars à 7900 ft=2410 mètres.

TAF de l'aéroport Ljungbyhed - ESTL

ESTL 270834Z 2709/2715 13012KT 2000 RADZ BKN003 TEMPO 2709/2711 6000 -RADZ BKN008

ESTL 270834Z 2709/2715 13012KT 2000 pluie DZ couverture nuageuse fragmentée à 003 temporairement 2709/2711 6000 faible RADZ couverture nuageuse fragmentée à 008

Aéroport à proximité de Ljungbyhed

Météo générale à 5 jours à Gålarp (6.2 km)ESMJ Aéroport Kagerod (14 km)ESML Aéroport Landskrona Viarp (26 km)ESME Aéroport Eslov (27 km)ESMF Aéroport Fagerhult (37 km)ESMH Aéroport Hoganas (41 km)EKGH Aéroport Gronholt (54 km)

Vue aérienne de l'aéroport Ljungbyhed

NOTAM de l'aéroport Ljungbyhed

Les NOTAM sont fournis sans aucune garantie de leur actualité. Le pilote est le seul responsable de la vérification de sa validité avant de l'utiliser opérationnellement pour préparer un vol ou l'utiliser lors de sa navigation.

Pas de NOTAM

Sources des données